Monday, December 5, 2016, 11:35 AM EST

KNHK, Nas Patuxent River Md

Location: Patuxent River, MD, United States Lat: 38.3
Local Time: 11:35 AM EST (16:35 GMT) Lon: -76.4
Time Zone: US/Eastern Elev: 39 ft

Show me the last for .
Show Decoded

2016-12-05 10:52 METAR KNHK 051552Z 33010KT 10SM SCT009 08/06 A3003 RMK AO2 SLP168 T00830056 $ =
2016-12-05 10:37 METAR KNHK 051537Z 33008KT 10SM SCT009 08/06 A3003 RMK AO2 T00780056 $ =
2016-12-05 09:52 METAR KNHK 051452Z 31006KT 10SM BKN008 08/06 A3002 RMK AO2 SLP167 T00780056
                 53008 =
2016-12-05 09:28 METAR KNHK 051428Z 28006KT 10SM BKN006 07/05 A3002 RMK AO2 T00670050 =
2016-12-05 08:52 METAR KNHK 051352Z 30005KT 10SM OVC005 06/05 A3002 RMK AO2 SLP166 T00610050 =
2016-12-05 07:52 METAR KNHK 051252Z 27003KT 10SM OVC005 06/04 A3000 RMK AO2 SLP160 T00560044
                 VISNO RY24 $ =
2016-12-05 07:28 METAR KNHK 051228Z 00000KT 10SM OVC005 06/04 A3000 RMK AO2 T00560044 VISNO RY24
                 =
2016-12-05 06:52 METAR KNHK 051152Z 00000KT 10SM BKN006 OVC045 06/04 A3000 RMK AO2 SLP159 60019
                 70022 T00560044 10061 20044 56015 VISNO RY24 =
2016-12-05 05:52 METAR KNHK 051052Z 18005KT 7SM BKN006 OVC043 06/04 A3000 RMK AO2 RAE15 SLP159
                 P0001 T00560044 VISNO RY24 $ =
2016-12-05 04:52 METAR KNHK 050952Z AUTO 6SM -RA BR FEW008 BKN042 OVC050 06/04 A3003 RMK AO2
                 SLP169 P0002 T00560044 VISNO RY24 $ =
2016-12-05 04:45 METAR KNHK 050945Z AUTO 4SM -RA BR FEW005 BKN036 OVC050 06/04 A3003 RMK AO2
                 P0002 T00560044 VISNO RY24 $ =
2016-12-05 04:37 METAR KNHK 050937Z AUTO 4SM -RA BR SCT007 BKN013 OVC031 06/04 A3003 RMK AO2
                 P0002 T00560044 VISNO RY24 $ =
2016-12-05 03:52 METAR KNHK 050852Z AUTO 21004KT 5SM -RA BR BKN008 BKN013 OVC021 06/04 A3004 RMK
                 AO2 SLP174 P0006 60016 T00560044 58001 VISNO RY24 $ =
2016-12-05 03:23 METAR KNHK 050823Z AUTO 20007KT 3SM -RA BR FEW006 BKN012 OVC019 06/04 A3005 RMK
                 AO2 P0004 T00560044 VISNO RY24 $ =
2016-12-05 02:52 METAR KNHK 050752Z AUTO 21005KT 4SM RA BR OVC016 06/04 A3006 RMK AO2 SLP178
                 P0006 T00560039 VISNO RY24 $ =
2016-12-05 02:21 METAR KNHK 050721Z AUTO 18005KT 4SM -RA BR SCT014 SCT021 OVC026 05/04 A3005 RMK
                 AO2 CIG 016 RY24 P0003 T00500039 VISNO RY24 $ =
2016-12-05 01:57 METAR KNHK 050657Z AUTO 18004KT 5SM -RA BR FEW009 BKN013 OVC027 05/03 A3005 RMK
                 AO2 P0000 T00500033 VISNO RY24 $ =
2016-12-05 01:52 METAR KNHK 050652Z AUTO VRB03KT 4SM -RA BR BKN015 BKN020 OVC027 04/03 A3005 RMK
                 AO2 SLP175 P0004 T00440033 VISNO RY24 $ =
2016-12-05 01:35 METAR KNHK 050635Z AUTO 17005KT 3SM -RA BR BKN018 BKN029 OVC036 04/03 A3004 RMK
                 AO2 P0003 T00440033 VISNO RY24 $ =
2016-12-05 00:52 METAR KNHK 050552Z AUTO 16006KT 6SM -RA BR OVC037 04/03 A3008 RMK AO2 SLP184
                 P0002 60003 T00440028 10067 20044 58027 VISNO RY24 $ =
2016-12-04 23:52 METAR KNHK 050452Z AUTO 18003KT 10SM -RA SCT035 OVC047 05/02 A3012 RMK AO2 RAB48
                 SLP199 P0000 T00500022 400830028 VISNO RY24 $ =
2016-12-04 22:52 METAR KNHK 050352Z AUTO 20005KT 10SM BKN045 OVC060 06/02 A3014 RMK AO2 RAE33
                 SLP206 P0001 T00560022 VISNO RY24 $ =
2016-12-04 21:52 METAR KNHK 050252Z AUTO 16003KT 10SM -RA OVC050 06/02 A3015 RMK AO2 RAB16 SLP211
                 P0000 60000 T00610017 58007 VISNO RY24 $ =
2016-12-04 20:52 METAR KNHK 050152Z AUTO 10003KT 10SM OVC060 07/01 A3016 RMK AO2 SLP214 T00670006
                 VISNO RY24 $ =
2016-12-04 19:52 METAR KNHK 050052Z AUTO 16005KT 10SM OVC070 07/M01 A3017 RMK AO2 PRESFR SLP217
                 T00671006 VISNO RY24 $ =
2016-12-04 18:52 METAR KNHK 042352Z AUTO 14003KT 10SM OVC080 06/M01 A3018 RMK AO2 SLP218
                 T00611006 10083 20056 58013 VISNO RY24 $ =
2016-12-04 17:52 METAR KNHK 042252Z 18003KT 10SM SCT120 OVC250 06/00 A3020 RMK AO2 SLP227
                 T00610000 VISNO RY24 $ =
2016-12-04 16:52 METAR KNHK 042152Z 19003KT 10SM SCT120 OVC250 06/00 A3021 RMK AO2 SLP229
                 T00610000 VISNO RY24 $ =
2016-12-04 15:52 METAR KNHK 042052Z 11003KT 10SM SCT120 OVC250 07/00 A3022 RMK AO2 SLP232
                 T00720000 56009 VISNO RY24 $ =
2016-12-04 14:52 METAR KNHK 041952Z 00000KT 10SM SCT120 OVC250 08/M03 A3022 RMK AO2 SLP233
                 T00781028 VISNO RY24 $ =
2016-12-04 13:52 METAR KNHK 041852Z 32004KT 10SM SCT120 OVC250 08/M02 A3024 RMK AO2 SLP239
                 T00781017 VISNO RY24 $ =
2016-12-04 12:52 METAR KNHK 041752Z 00000KT 10SM FEW120 OVC250 08/M01 A3024 RMK AO2 SLP241
                 T00831006 10083 20033 58017 VISNO RY24 $ =
2016-12-04 11:52 METAR KNHK 041652Z 31003KT 10SM FEW120 BKN250 07/M01 A3026 RMK AO2 SLP246
                 T00721011 VISNO RY24 $ =

Support USWX by starting your Amazon purchase here.